Time;durP1;ratioP1;P1;durP2;ratioP2;P2;SDS_P1;SDS_P2;PMS_P1;PMS_P2;Temp;Humidity;BMP_temperature;BMP_pressure;BME280_temperature;BME280_humidity;BME280_pressure;Samples;Min_cycle;Max_cycle;Signal;HPM_P1;HPM_P2
2022/08/02 00:00:29;;;;;;;4.87;2.85;;;;;;;14.84;75.77;99650.95;1708236;82;20906;-60
2022/08/02 00:02:58;;;;;;;6.17;3.15;;;;;;;14.88;75.92;99649.81;1718563;81;21512;-60
2022/08/02 00:05:24;;;;;;;7.87;3.47;;;;;;;14.93;76.12;99645.10;1722801;81;20891;-60
2022/08/02 00:07:51;;;;;;;4.33;3.77;;;;;;;14.95;76.22;99645.82;1702269;83;20961;-60
2022/08/02 00:10:18;;;;;;;3.70;2.90;;;;;;;14.97;76.28;99638.68;1717430;82;21053;-60
2022/08/02 00:12:44;;;;;;;5.83;3.70;;;;;;;14.97;76.31;99633.42;1734016;81;21650;-60
2022/08/02 00:15:11;;;;;;;6.13;2.90;;;;;;;14.97;76.31;99633.42;1732980;81;21640;-60
2022/08/02 00:17:38;;;;;;;4.58;3.02;;;;;;;14.96;76.53;99642.27;1731604;81;21536;-59
2022/08/02 00:20:06;;;;;;;3.83;3.43;;;;;;;14.94;76.74;99644.14;1734452;81;20930;-60
2022/08/02 00:22:32;;;;;;;6.33;3.50;;;;;;;14.93;76.79;99646.89;1734674;81;21488;-60
2022/08/02 00:24:59;;;;;;;4.78;3.45;;;;;;;14.92;76.90;99646.02;1737159;81;21026;-60
2022/08/02 00:27:25;;;;;;;4.60;3.30;;;;;;;14.93;77.03;99642.47;1737167;81;20887;-60
2022/08/02 00:29:52;;;;;;;5.93;3.57;;;;;;;14.94;77.12;99641.52;1736015;81;21055;-60
2022/08/02 00:32:19;;;;;;;5.40;3.58;;;;;;;14.94;77.19;99633.63;1736771;80;20959;-60
2022/08/02 00:34:46;;;;;;;9.13;4.22;;;;;;;14.95;77.34;99636.62;1739301;81;21025;-60
2022/08/02 00:37:14;;;;;;;6.45;3.80;;;;;;;14.98;77.47;99637.75;1738453;81;20906;-60
2022/08/02 00:39:42;;;;;;;3.65;3.30;;;;;;;15.03;77.56;99633.96;1737821;81;20897;-60
2022/08/02 00:42:09;;;;;;;4.85;3.85;;;;;;;15.05;77.69;99642.59;1741532;80;20963;-60
2022/08/02 00:44:37;;;;;;;6.15;4.12;;;;;;;15.08;77.77;99637.13;1736957;81;26328;-60
2022/08/02 00:47:04;;;;;;;4.05;3.65;;;;;;;15.07;77.80;99642.00;1711209;82;21945;-60
2022/08/02 00:49:31;;;;;;;4.17;3.75;;;;;;;15.06;77.94;99636.38;1714718;82;21434;-59
2022/08/02 00:51:57;;;;;;;5.60;3.98;;;;;;;15.05;78.04;99642.59;1710162;82;20885;-60
2022/08/02 00:54:24;;;;;;;4.67;4.17;;;;;;;15.05;78.12;99639.97;1708208;82;20983;-60
2022/08/02 00:56:51;;;;;;;7.20;3.95;;;;;;;15.03;78.29;99645.80;1735922;81;21357;-60
2022/08/02 00:59:18;;;;;;;6.50;4.17;;;;;;;15.03;78.31;99647.11;1710674;82;21078;-60
2022/08/02 01:01:45;;;;;;;5.25;3.70;;;;;;;15.03;78.37;99631.33;1708770;82;21468;-60
2022/08/02 01:04:13;;;;;;;7.30;4.17;;;;;;;15.03;78.57;99641.85;1725320;83;20877;-60
2022/08/02 01:06:42;;;;;;;7.33;3.80;;;;;;;15.05;78.65;99639.97;1719446;82;21029;-60
2022/08/02 01:09:10;;;;;;;9.13;3.62;;;;;;;15.04;78.72;99636.95;1719227;82;20946;-60
2022/08/02 01:11:37;;;;;;;4.80;3.60;;;;;;;15.06;78.93;99652.16;1715755;82;21059;-60
2022/08/02 01:14:11;;;;;;;6.72;3.95;;;;;;;15.10;79.11;99640.51;1717954;82;20950;-60
2022/08/02 01:16:51;;;;;;;7.72;4.25;;;;;;;15.15;79.24;99643.64;1722275;82;20958;-60
2022/08/02 01:19:29;;;;;;;5.03;3.90;;;;;;;15.20;79.26;99646.81;1717543;82;21001;-60
2022/08/02 01:22:04;;;;;;;8.90;3.25;;;;;;;15.26;79.37;99643.76;1719880;82;21436;-59
2022/08/02 01:24:54;;;;;;;5.90;3.30;;;;;;;15.29;79.41;99651.47;1718006;82;21168;-60
2022/08/02 01:28:07;;;;;;;3.83;3.52;;;;;;;15.33;79.61;99652.09;1718347;82;20969;-60
2022/08/02 01:30:34;;;;;;;6.80;3.35;;;;;;;15.37;79.70;99651.77;1724510;82;20903;-60
2022/08/02 01:33:02;;;;;;;;;;;;;;;15.41;79.78;99646.67;1725080;82;20908;-60
2022/08/02 01:35:34;;;;;;;6.28;3.50;;;;;;;15.44;80.00;99645.15;1722135;82;20436;-60
2022/08/02 01:38:14;;;;;;;4.78;3.65;;;;;;;15.45;79.88;99646.82;1723773;81;21039;-60
2022/08/02 01:40:44;;;;;;;4.05;3.10;;;;;;;15.44;79.88;99642.52;1720257;82;20946;-60
2022/08/02 01:43:13;;;;;;;4.30;3.40;;;;;;;15.44;79.93;99641.69;1723660;82;20982;-60
2022/08/02 01:45:43;;;;;;;6.62;3.45;;;;;;;15.41;79.96;99644.05;1726377;82;20966;-59
2022/08/02 01:48:12;;;;;;;8.00;3.37;;;;;;;15.37;79.96;99643.03;1712553;82;21033;-60
2022/08/02 01:50:41;;;;;;;7.17;3.50;;;;;;;15.31;79.98;99649.55;1708691;82;21053;-60
2022/08/02 01:53:12;;;;;;;4.92;3.27;;;;;;;15.26;80.06;99647.70;1728560;81;20881;-60
2022/08/02 01:55:49;;;;;;;8.83;3.20;;;;;;;15.20;80.14;99647.65;1710764;82;20924;-60
2022/08/02 01:58:17;;;;;;;;;;;;;;;15.14;80.23;99647.23;1733846;81;20932;-60
2022/08/02 02:00:45;;;;;;;5.50;3.60;;;;;;;15.09;80.48;99644.06;1738123;81;20156;-60
2022/08/02 02:03:17;;;;;;;5.83;3.37;;;;;;;15.03;80.39;99647.11;1739127;81;21023;-59
2022/08/02 02:05:50;;;;;;;5.50;3.30;;;;;;;14.92;80.60;99648.66;1735712;81;21461;-60
2022/08/02 02:08:22;;;;;;;5.22;3.17;;;;;;;14.89;80.69;99648.02;1730953;81;20951;-60
2022/08/02 02:10:50;;;;;;;6.75;2.98;;;;;;;14.85;80.79;99655.28;1730998;81;20950;-60
2022/08/02 02:13:19;;;;;;;6.45;3.15;;;;;;;14.80;80.81;99656.05;1732829;81;21351;-60
2022/08/02 02:15:49;;;;;;;5.00;3.30;;;;;;;14.77;80.87;99660.20;1734987;81;21916;-60
2022/08/02 02:18:26;;;;;;;8.10;2.80;;;;;;;14.73;80.94;99661.32;1732165;81;21480;-60
2022/08/02 02:20:53;;;;;;;;;;;;;;;14.69;81.03;99662.48;1737462;81;20901;-60
2022/08/02 02:23:21;;;;;;;7.22;2.98;;;;;;;14.64;81.21;99666.71;1733336;81;20137;-60
2022/08/02 02:25:47;;;;;;;;;;;;;;;14.57;81.07;99665.91;1716835;82;20923;-60
2022/08/02 02:28:21;;;;;;;6.75;3.12;;;;;;;14.50;81.37;99666.25;1714028;82;21060;-59
2022/08/02 02:30:52;;;;;;;5.00;2.92;;;;;;;14.45;81.28;99668.36;1711689;82;21005;-60
2022/08/02 02:33:21;;;;;;;4.37;2.72;;;;;;;14.40;81.30;99670.43;1710644;82;20984;-60
2022/08/02 02:35:51;;;;;;;6.70;2.70;;;;;;;14.37;81.40;99678.52;1717832;81;20994;-60
2022/08/02 02:38:19;;;;;;;6.67;3.05;;;;;;;14.34;81.49;99668.20;1716435;81;20938;-60
2022/08/02 02:40:48;;;;;;;6.80;2.90;;;;;;;14.31;81.41;99676.25;1722732;82;21045;-60
2022/08/02 02:43:16;;;;;;;10.05;3.52;;;;;;;14.26;81.46;99678.34;1722271;82;20888;-60
2022/08/02 02:45:44;;;;;;;24.98;4.00;;;;;;;14.21;81.65;99683.05;1714190;82;21604;-60
2022/08/02 02:48:13;;;;;;;12.73;3.37;;;;;;;14.19;81.70;99687.54;1713680;82;21406;-59
2022/08/02 02:50:42;;;;;;;22.27;3.50;;;;;;;14.19;81.77;99687.54;1718546;82;20991;-60
2022/08/02 02:53:11;;;;;;;9.55;3.40;;;;;;;14.17;81.79;99690.28;1717106;82;20980;-60
2022/08/02 02:55:38;;;;;;;6.08;2.80;;;;;;;14.14;81.90;99689.60;1713956;82;20948;-60
2022/08/02 02:58:07;;;;;;;10.63;3.30;;;;;;;14.13;81.96;99686.61;1717128;82;20922;-59
2022/08/02 03:03:20;;;;;;;5.45;2.87;;;;;;;14.16;82.30;99689.05;1716020;82;20939;-60
2022/08/02 03:05:47;;;;;;;4.70;3.27;;;;;;;14.20;82.36;99689.21;1716819;82;20995;-60
2022/08/02 03:08:14;;;;;;;9.25;2.60;;;;;;;14.22;82.36;99690.80;1713931;82;26713;-60
2022/08/02 03:10:43;;;;;;;7.10;3.37;;;;;;;14.23;82.38;99692.98;1712705;82;20929;-60
2022/08/02 03:13:10;;;;;;;5.03;2.52;;;;;;;14.23;82.41;99690.36;1717924;82;20931;-60
2022/08/02 03:15:39;;;;;;;19.37;3.20;;;;;;;14.23;82.43;99692.98;1717176;82;20954;-60
2022/08/02 03:18:10;;;;;;;15.50;3.08;;;;;;;14.24;82.55;99689.41;1716592;82;21058;-60
2022/08/02 03:20:34;;;;;;;15.43;3.55;;;;;;;14.25;82.54;99688.46;1717853;81;20946;-60
2022/08/02 03:23:01;;;;;;;11.10;2.90;;;;;;;14.28;82.62;99694.83;1714170;81;20914;-60
2022/08/02 03:25:28;;;;;;;16.40;3.15;;;;;;;14.32;82.70;99688.46;1735937;81;21466;-60
2022/08/02 03:27:55;;;;;;;9.98;2.67;;;;;;;14.41;82.84;99693.12;1700903;83;21087;-60
2022/08/02 03:30:25;;;;;;;8.18;3.27;;;;;;;14.76;83.45;99695.31;1713474;82;21078;-60
2022/08/02 03:32:51;;;;;;;8.05;2.67;;;;;;;15.31;83.55;99694.27;1716276;82;20943;-60
2022/08/02 03:35:19;;;;;;;7.50;2.62;;;;;;;15.91;83.41;99698.58;1718618;82;20915;-60
2022/08/02 03:37:47;;;;;;;6.45;2.40;;;;;;;16.62;83.56;99688.66;1717771;82;20962;-60
2022/08/02 03:40:16;;;;;;;6.40;2.52;;;;;;;17.44;83.31;99692.22;1719555;82;20959;-60
2022/08/02 03:42:43;;;;;;;12.28;3.02;;;;;;;18.29;83.09;99696.27;1716533;82;21045;-60
2022/08/02 03:45:12;;;;;;;7.58;2.15;;;;;;;18.89;82.10;99694.92;1713424;82;21520;-60
2022/08/02 03:47:48;;;;;;;12.78;2.42;;;;;;;19.58;81.81;99690.97;1715251;82;20927;-60
2022/08/02 03:50:15;;;;;;;10.60;2.83;;;;;;;20.08;81.39;99699.88;1716044;82;21496;-60
2022/08/02 03:52:43;;;;;;;9.25;2.55;;;;;;;20.85;81.55;99693.58;1720768;82;20938;-61
2022/08/02 03:55:12;;;;;;;9.40;2.85;;;;;;;21.57;81.17;99694.44;1724700;82;21062;-60
2022/08/02 03:57:41;;;;;;;7.33;2.05;;;;;;;22.23;79.23;99695.34;1723528;82;20886;-61
2022/08/02 04:00:11;;;;;;;15.53;2.85;;;;;;;22.67;79.27;99702.15;1717823;82;20931;-61
2022/08/02 04:02:39;;;;;;;21.10;3.55;;;;;;;22.78;77.25;99700.59;1713574;81;21460;-61
2022/08/02 04:05:06;;;;;;;18.07;3.40;;;;;;;23.07;77.36;99700.89;1715089;82;20983;-61
2022/08/02 04:07:33;;;;;;;13.40;2.90;;;;;;;23.42;77.32;99699.52;1715792;82;21817;-61
2022/08/02 04:09:59;;;;;;;;;;;;;;;23.99;77.11;99704.88;1720796;82;20981;-61
2022/08/02 04:12:26;;;;;;;11.55;2.58;;;;;;;24.38;75.48;99700.37;1717501;82;20119;-61
2022/08/02 04:14:53;;;;;;;13.93;3.12;;;;;;;24.82;76.32;99708.19;1718005;82;20954;-61
2022/08/02 04:17:22;;;;;;;9.55;2.70;;;;;;;25.01;74.10;99705.17;1716714;82;21026;-61
2022/08/02 04:20:21;;;;;;;12.70;2.72;;;;;;;25.26;74.23;99710.56;1717941;82;21057;-61
2022/08/02 04:23:06;;;;;;;15.53;2.72;;;;;;;26.03;74.87;99713.64;1715335;81;20922;-61
2022/08/02 04:25:34;;;;;;;9.27;2.70;;;;;;;26.52;72.14;99710.77;1719082;82;20967;-61
2022/08/02 04:28:02;;;;;;;12.88;2.45;;;;;;;26.83;71.97;99710.77;1713236;82;21493;-62
2022/08/02 04:30:31;;;;;;;13.13;2.08;;;;;;;27.14;71.00;99707.16;1715796;82;20940;-61
2022/08/02 04:32:58;;;;;;;15.48;2.70;;;;;;;27.30;70.45;99721.80;1718210;82;21393;-62
2022/08/02 04:35:25;;;;;;;27.05;3.95;;;;;;;27.67;70.60;99714.75;1717249;82;21492;-61
2022/08/02 04:37:52;;;;;;;15.90;3.25;;;;;;;28.31;70.63;99720.41;1718461;82;21461;-61
2022/08/02 04:40:19;;;;;;;18.57;2.90;;;;;;;28.73;68.74;99724.23;1712282;82;20997;-62
2022/08/02 04:42:46;;;;;;;9.33;2.47;;;;;;;29.12;68.76;99725.69;1718154;82;20982;-61
2022/08/02 04:45:14;;;;;;;7.33;2.10;;;;;;;29.31;66.75;99727.42;1715133;82;21911;-61
2022/08/02 04:47:40;;;;;;;8.20;2.20;;;;;;;29.63;67.31;99729.58;1706398;82;20922;-61
2022/08/02 04:50:08;;;;;;;6.12;2.22;;;;;;;29.87;66.11;99728.79;1710929;82;20957;-61
2022/08/02 04:52:35;;;;;;;6.40;2.02;;;;;;;29.61;62.98;99732.94;1716504;82;21022;-61
2022/08/02 04:55:02;;;;;;;6.00;2.30;;;;;;;29.34;62.89;99735.09;1711672;82;20956;-62
2022/08/02 05:00:14;;;;;;;9.88;2.20;;;;;;;29.75;62.81;99727.16;1710930;82;21468;-62
2022/08/02 05:02:41;;;;;;;8.55;2.00;;;;;;;30.16;61.63;99728.21;1712126;82;20953;-62
2022/08/02 05:05:08;;;;;;;4.58;2.20;;;;;;;30.26;60.37;99731.41;1715604;82;20932;-62
2022/08/02 05:07:35;;;;;;;5.10;2.10;;;;;;;29.93;58.48;99737.41;1714897;82;21587;-61
2022/08/02 05:10:02;;;;;;;6.65;2.35;;;;;;;29.82;59.91;99735.27;1710867;82;20959;-62
2022/08/02 05:12:28;;;;;;;7.85;2.35;;;;;;;29.94;58.50;99736.40;1711029;82;21460;-62
2022/08/02 05:14:55;;;;;;;9.50;1.87;;;;;;;29.94;56.94;99739.09;1711662;82;20947;-62
2022/08/02 05:17:22;;;;;;;4.42;1.62;;;;;;;29.71;56.88;99743.38;1708816;82;21536;-62
2022/08/02 05:19:49;;;;;;;5.50;1.60;;;;;;;28.94;52.31;99756.20;1712039;82;21056;-62
2022/08/02 05:22:15;;;;;;;6.37;2.17;;;;;;;27.52;51.97;99756.30;1712625;82;21106;-61
2022/08/02 05:24:42;;;;;;;12.15;2.25;;;;;;;26.81;53.59;99760.16;1711150;82;20953;-62
2022/08/02 05:27:09;;;;;;;7.42;2.20;;;;;;;26.75;54.05;99757.69;1709729;82;21037;-62
2022/08/02 05:29:35;;;;;;;6.30;1.40;;;;;;;26.83;52.84;99758.13;1713279;81;21464;-61
2022/08/02 05:32:02;;;;;;;8.63;1.67;;;;;;;26.53;52.00;99766.83;1714090;82;21032;-62
2022/08/02 05:34:29;;;;;;;5.28;1.82;;;;;;;26.04;51.73;99771.48;1715923;82;21324;-61
2022/08/02 05:36:56;;;;;;;4.85;1.87;;;;;;;26.04;52.02;99762.95;1709828;82;20922;-61
2022/08/02 05:39:22;;;;;;;5.45;1.95;;;;;;;26.34;51.15;99769.89;1714404;82;20977;-61
2022/08/02 05:41:49;;;;;;;7.87;1.75;;;;;;;26.12;50.51;99775.47;1708507;82;20930;-62
2022/08/02 05:44:16;;;;;;;6.47;1.87;;;;;;;25.72;49.91;99775.03;1715948;82;20998;-62
2022/08/02 05:46:43;;;;;;;9.03;1.92;;;;;;;25.72;50.61;99775.03;1712129;82;21293;-62
2022/08/02 05:49:09;;;;;;;9.05;1.98;;;;;;;26.02;50.39;99778.84;1718933;82;20982;-62
2022/08/02 05:51:53;;;;;;;9.23;2.30;;;;;;;26.12;50.38;99780.31;1715238;82;20952;-61
2022/08/02 05:54:28;;;;;;;16.95;2.33;;;;;;;26.43;50.10;99784.90;1706353;82;20899;-62
2022/08/02 05:57:05;;;;;;;6.20;1.90;;;;;;;26.59;48.61;99781.88;1734921;81;20970;-62
2022/08/02 06:00:08;;;;;;;17.12;2.67;;;;;;;26.30;44.56;99780.63;1713011;83;21876;-61
2022/08/02 06:02:56;;;;;;;8.05;1.72;;;;;;;25.64;47.98;99786.05;1712582;83;20929;-61
2022/08/02 06:05:26;;;;;;;8.05;2.00;;;;;;;26.29;49.66;99788.30;1710276;83;20907;-62
2022/08/02 06:07:55;;;;;;;11.50;1.80;;;;;;;27.13;49.38;99785.39;1713746;83;20946;-62
2022/08/02 06:10:22;;;;;;;7.30;1.65;;;;;;;27.78;48.84;99788.06;1713702;82;20950;-62
2022/08/02 06:12:57;;;;;;;7.33;1.75;;;;;;;28.15;48.89;99781.03;1706882;83;21116;-62
2022/08/02 06:15:24;;;;;;;6.10;2.00;;;;;;;28.72;48.40;99783.55;1699261;82;20990;-62
2022/08/02 06:17:52;;;;;;;12.95;2.83;;;;;;;28.63;46.73;99778.80;1711040;82;20946;-62
2022/08/02 06:20:20;;;;;;;10.80;2.02;;;;;;;28.56;47.56;99777.87;1712634;82;20939;-62
2022/08/02 06:22:49;;;;;;;38.30;5.42;;;;;;;28.80;46.78;99781.27;1705446;82;21484;-62
2022/08/02 06:25:16;;;;;;;12.00;2.15;;;;;;;29.03;46.89;99779.27;1710113;82;21100;-62
2022/08/02 06:27:43;;;;;;;6.95;2.27;;;;;;;28.99;45.78;99780.66;1706143;83;21456;-62
2022/08/02 06:30:10;;;;;;;8.93;1.77;;;;;;;28.80;46.16;99792.02;1710189;82;20951;-63
2022/08/02 06:32:38;;;;;;;6.28;1.77;;;;;;;29.04;45.81;99791.67;1706524;82;21014;-62
2022/08/02 06:35:05;;;;;;;6.50;1.50;;;;;;;28.62;43.18;99787.86;1708494;82;20965;-63
2022/08/02 06:37:39;;;;;;;6.05;1.70;;;;;;;27.37;43.74;99792.98;1711429;82;21124;-61
2022/08/02 06:40:23;;;;;;;9.70;1.70;;;;;;;27.06;44.12;99794.34;1709451;82;21046;-62
2022/08/02 06:43:12;;;;;;;8.65;2.02;;;;;;;27.20;44.28;99802.98;1709665;83;20921;-61
2022/08/02 06:45:39;;;;;;;6.92;1.70;;;;;;;26.99;43.89;99801.72;1709814;82;21039;-61
2022/08/02 06:48:08;;;;;;;11.50;2.15;;;;;;;26.33;42.81;99803.02;1706137;83;20924;-61
2022/08/02 06:50:40;;;;;;;11.93;1.72;;;;;;;25.94;43.20;99806.97;1724384;82;20992;-61
2022/08/02 06:53:08;;;;;;;8.23;1.60;;;;;;;25.93;43.11;99811.46;1719405;82;20887;-61
2022/08/02 06:55:35;;;;;;;8.78;2.00;;;;;;;25.78;42.87;99811.80;1690177;83;20956;-61
2022/08/02 06:58:02;;;;;;;9.98;1.62;;;;;;;25.53;42.45;99813.13;1689865;83;21513;-61
2022/08/02 07:00:30;;;;;;;12.73;1.50;;;;;;;25.00;42.37;99813.03;1723910;81;20877;-62
2022/08/02 07:02:59;;;;;;;5.40;1.67;;;;;;;25.06;41.72;99819.05;1700717;83;21061;-61
2022/08/02 07:05:26;;;;;;;11.97;1.95;;;;;;;24.56;42.53;99821.22;1699571;83;20935;-61
2022/08/02 07:07:52;;;;;;;13.65;2.55;;;;;;;24.50;42.13;99824.53;1700056;82;20975;-62
2022/08/02 07:10:19;;;;;;;6.75;1.67;;;;;;;24.59;43.13;99823.59;1697459;83;20993;-61
2022/08/02 07:12:46;;;;;;;5.42;1.25;;;;;;;25.14;43.21;99831.13;1699839;83;21528;-61
2022/08/02 07:15:13;;;;;;;10.28;2.35;;;;;;;25.08;41.51;99831.75;1716712;82;22573;-61
2022/08/02 07:17:39;;;;;;;12.15;1.90;;;;;;;24.41;42.15;99836.14;1695378;83;21647;-60
2022/08/02 07:20:08;;;;;;;13.72;1.92;;;;;;;24.72;43.19;99831.97;1698829;83;20984;-60
2022/08/02 07:22:36;;;;;;;14.00;2.02;;;;;;;25.22;43.01;99829.80;1692898;83;21012;-60
2022/08/02 07:25:05;;;;;;;16.87;2.37;;;;;;;25.41;42.83;99834.52;1695093;83;20880;-59
2022/08/02 07:27:32;;;;;;;7.28;1.60;;;;;;;25.38;42.57;99831.67;1695620;83;21935;-60
2022/08/02 07:29:59;;;;;;;7.03;1.87;;;;;;;25.31;42.46;99836.50;1692063;83;20966;-59
2022/08/02 07:32:29;;;;;;;11.90;2.15;;;;;;;25.01;42.26;99844.07;1697646;82;20912;-59
2022/08/02 07:34:57;;;;;;;9.88;2.77;;;;;;;24.22;41.77;99849.20;1696600;83;20951;-59
2022/08/02 07:37:28;;;;;;;8.18;2.08;;;;;;;23.82;42.91;99841.27;1695040;83;21461;-60
2022/08/02 07:39:56;;;;;;;23.22;2.58;;;;;;;23.70;42.66;99840.64;1695523;83;21017;-60
2022/08/02 07:42:23;;;;;;;;;;;;;;;23.24;42.28;99842.53;1691412;83;20899;-59
2022/08/02 07:44:51;;;;;;;9.03;1.95;;;;;;;22.73;42.58;99844.77;1704013;82;20449;-59
2022/08/02 07:47:18;;;;;;;6.40;1.50;;;;;;;22.52;42.95;99842.36;1724791;81;20979;-60
2022/08/02 07:49:45;;;;;;;9.98;2.12;;;;;;;22.20;43.08;99850.70;1735680;81;21559;-61
2022/08/02 07:52:11;;;;;;;;;;;;;;;22.05;43.19;99847.64;1738099;81;21102;-61
2022/08/02 07:54:38;;;;;;;7.50;1.57;;;;;;;21.86;43.15;99842.35;1738436;81;28628;-60
2022/08/02 07:57:05;;;;;;;8.23;1.80;;;;;;;21.22;43.49;99856.50;1734505;81;26311;-60
2022/08/02 07:59:32;;;;;;;7.45;1.35;;;;;;;21.14;43.95;99853.69;1732443;81;20993;-60
2022/08/02 08:01:58;;;;;;;;;;;;;;;21.40;44.37;99858.03;1720459;82;20939;-60
2022/08/02 08:04:25;;;;;;;6.08;2.10;;;;;;;21.57;44.57;99852.52;1713529;82;20933;-60
2022/08/02 08:06:52;;;;;;;12.03;1.82;;;;;;;22.01;44.65;99851.55;1715435;82;20985;-59
2022/08/02 08:09:19;;;;;;;8.00;1.57;;;;;;;22.41;44.93;99853.18;1713624;82;21614;-61
2022/08/02 08:11:46;;;;;;;6.00;1.50;;;;;;;22.64;44.82;99858.13;1713598;82;20954;-61
2022/08/02 08:14:13;;;;;;;6.25;1.42;;;;;;;22.76;44.57;99859.61;1722377;82;20978;-61
2022/08/02 08:16:40;;;;;;;3.42;1.25;;;;;;;22.89;44.69;99853.95;1718617;82;21083;-60
2022/08/02 08:19:07;;;;;;;8.23;1.70;;;;;;;22.98;44.21;99852.58;1720255;82;20910;-61
2022/08/02 08:21:34;;;;;;;2.92;1.02;;;;;;;22.70;44.02;99862.86;1718496;82;20999;-61
2022/08/02 08:24:01;;;;;;;8.90;1.32;;;;;;;22.31;43.53;99860.34;1715527;82;20970;-61
2022/08/02 08:26:27;;;;;;;3.67;1.17;;;;;;;21.97;43.69;99863.46;1715240;82;26383;-60
2022/08/02 08:28:54;;;;;;;9.35;1.75;;;;;;;22.09;43.84;99861.48;1715364;82;21091;-60
2022/08/02 08:31:21;;;;;;;6.47;1.72;;;;;;;21.81;44.06;99841.94;1713402;82;20956;-61
2022/08/02 08:33:47;;;;;;;2.70;1.00;;;;;;;21.95;44.09;99862.76;1713370;82;20922;-60
2022/08/02 08:36:15;;;;;;;16.32;1.62;;;;;;;21.78;43.86;99860.83;1714154;82;20990;-60
2022/08/02 08:38:42;;;;;;;8.48;1.57;;;;;;;21.81;44.55;99860.54;1709991;82;21525;-61
2022/08/02 08:41:08;;;;;;;;;;;;;;;22.21;44.63;99856.86;1723414;82;21226;-60
2022/08/02 08:43:36;;;;;;;7.97;1.50;;;;;;;22.50;44.44;99864.27;1712841;82;20475;-60
2022/08/02 08:46:04;;;;;;;8.13;1.50;;;;;;;22.61;44.71;99861.09;1718070;82;20951;-60
2022/08/02 08:48:34;;;;;;;4.62;1.47;;;;;;;22.90;44.79;99858.28;1709578;82;20949;-60
2022/08/02 08:51:11;;;;;;;8.18;1.72;;;;;;;23.23;44.77;99856.85;1716543;81;21428;-60
2022/08/02 08:53:48;;;;;;;10.70;1.52;;;;;;;23.34;44.76;99861.96;1712237;82;21705;-60
2022/08/02 08:56:16;;;;;;;13.10;2.40;;;;;;;23.42;44.50;99859.38;1711371;82;20945;-60
2022/08/02 08:58:46;;;;;;;8.48;1.95;;;;;;;23.28;44.21;99859.91;1711056;82;20912;-60
2022/08/02 09:01:14;;;;;;;4.55;1.32;;;;;;;23.45;44.64;99869.73;1717054;82;21283;-60
2022/08/02 09:03:42;;;;;;;8.65;1.50;;;;;;;23.74;44.71;99872.69;1685492;82;20924;-60
2022/08/02 09:06:09;;;;;;;11.73;1.80;;;;;;;23.62;43.95;99864.56;1720291;82;21057;-61
2022/08/02 09:08:36;;;;;;;13.72;1.82;;;;;;;23.62;44.20;99864.56;1717177;82;20962;-61
2022/08/02 09:11:13;;;;;;;38.58;3.37;;;;;;;23.80;44.21;99869.39;1719114;82;20935;-61
2022/08/02 09:13:53;;;;;;;13.00;1.92;;;;;;;23.96;44.21;99871.86;1714415;82;20946;-60
2022/08/02 09:16:39;;;;;;;15.05;2.27;;;;;;;24.13;43.81;99876.32;1711519;82;20954;-61
2022/08/02 09:19:24;;;;;;;5.53;1.52;;;;;;;23.56;42.91;99883.83;1708341;82;21014;-60
2022/08/02 09:21:54;;;;;;;4.30;1.75;;;;;;;23.43;43.98;99877.03;1703995;81;20934;-61
2022/08/02 09:24:22;;;;;;;4.90;1.17;;;;;;;23.30;43.21;99876.59;1718225;82;21003;-61
2022/08/02 09:26:50;;;;;;;4.80;1.25;;;;;;;22.74;42.80;99878.87;1715964;82;21512;-60
2022/08/02 09:29:22;;;;;;;7.95;1.40;;;;;;;22.88;42.92;99874.42;1718179;82;20950;-61
2022/08/02 09:31:50;;;;;;;6.53;1.20;;;;;;;22.84;42.95;99881.50;1712638;82;21147;-61
2022/08/02 09:34:18;;;;;;;4.45;1.35;;;;;;;23.12;43.26;99877.04;1713811;82;20974;-62
2022/08/02 09:36:47;;;;;;;3.45;1.17;;;;;;;23.37;43.14;99874.14;1709080;82;20946;-61
2022/08/02 09:39:17;;;;;;;8.45;1.90;;;;;;;23.51;43.13;99885.61;1722167;82;20919;-60
2022/08/02 09:41:45;;;;;;;5.25;1.50;;;;;;;23.72;43.14;99889.31;1718011;82;21003;-61
2022/08/02 09:44:14;;;;;;;6.75;1.07;;;;;;;23.81;42.93;99880.42;1711335;82;21042;-60
2022/08/02 09:46:43;;;;;;;3.25;0.93;;;;;;;23.85;42.99;99884.44;1719286;82;20946;-61
2022/08/02 09:49:16;;;;;;;5.37;1.45;;;;;;;23.60;41.70;99882.52;1696120;82;21469;-61
2022/08/02 09:51:53;;;;;;;15.80;2.30;;;;;;;23.20;42.32;99878.47;1715292;82;20946;-61
2022/08/02 09:54:27;;;;;;;5.70;1.42;;;;;;;23.50;42.76;99876.41;1692226;82;21562;-61
2022/08/02 09:56:58;;;;;;;7.90;1.65;;;;;;;23.33;40.50;99886.94;1721252;82;21068;-60
2022/08/02 09:59:26;;;;;;;5.50;1.37;;;;;;;22.53;40.34;99895.91;1714806;82;21533;-61
2022/08/02 10:01:55;;;;;;;19.80;2.12;;;;;;;22.27;41.56;99881.08;1723855;82;20885;-61
2022/08/02 10:04:24;;;;;;;8.03;1.42;;;;;;;22.46;41.89;99885.52;1716535;82;20920;-61
2022/08/02 10:06:53;;;;;;;4.87;1.07;;;;;;;22.47;41.29;99877.87;1712129;82;20951;-61
2022/08/02 10:09:21;;;;;;;6.28;1.22;;;;;;;22.42;40.64;99873.47;1715598;82;22011;-61
2022/08/02 10:11:49;;;;;;;3.72;1.37;;;;;;;22.41;40.87;99866.48;1713486;82;21005;-61
2022/08/02 10:14:18;;;;;;;2.85;1.20;;;;;;;22.47;40.83;99864.56;1710854;81;20914;-61
2022/08/02 10:16:44;;;;;;;6.75;1.07;;;;;;;22.53;41.26;99862.64;1717178;82;20980;-60
2022/08/02 10:19:11;;;;;;;12.35;1.62;;;;;;;22.65;41.67;99857.97;1709429;82;21473;-60
2022/08/02 10:22:05;;;;;;;8.15;1.42;;;;;;;22.81;41.78;99857.34;1719405;82;21048;-61
2022/08/02 10:24:38;;;;;;;5.22;1.67;;;;;;;23.20;42.37;99845.17;1715227;82;20999;-60
2022/08/02 10:27:19;;;;;;;4.10;1.52;;;;;;;23.74;42.39;99859.35;1720609;82;20926;-60
2022/08/02 10:29:49;;;;;;;7.47;1.57;;;;;;;24.12;42.56;99859.98;1719693;82;20926;-60
2022/08/02 10:32:26;;;;;;;16.10;2.17;;;;;;;24.28;41.13;99855.23;1717973;82;21629;-60
2022/08/02 10:35:07;;;;;;;11.28;1.40;;;;;;;23.99;41.76;99855.05;1716152;82;21719;-59
2022/08/02 10:37:38;;;;;;;8.93;1.95;;;;;;;23.96;41.51;99850.53;1718536;82;21468;-61
2022/08/02 10:40:21;;;;;;;10.90;1.67;;;;;;;23.82;41.14;99859.92;1718230;82;21341;-60
2022/08/02 10:42:45;;;;;;;11.50;1.72;;;;;;;23.41;41.15;99852.39;1711955;81;20887;-61
2022/08/02 10:45:16;;;;;;;7.33;1.70;;;;;;;23.56;41.74;99855.34;1722736;82;20915;-61
2022/08/02 10:48:19;;;;;;;9.03;1.95;;;;;;;23.79;41.38;99857.06;1721388;82;21064;-60
2022/08/02 10:50:51;;;;;;;5.78;1.50;;;;;;;23.75;41.63;99854.38;1711563;82;20958;-61
2022/08/02 10:53:30;;;;;;;5.15;1.35;;;;;;;23.93;40.92;99853.52;1725012;82;22085;-61
2022/08/02 10:56:04;;;;;;;6.97;1.35;;;;;;;23.52;40.86;99851.80;1719338;82;20972;-61
2022/08/02 10:58:33;;;;;;;4.25;1.30;;;;;;;23.57;41.57;99845.52;1717753;82;20982;-60
2022/08/02 11:01:36;;;;;;;4.90;1.35;;;;;;;23.82;41.65;99849.26;1716812;82;21979;-61
2022/08/02 11:04:00;;;;;;;9.50;2.08;;;;;;;24.17;41.76;99849.69;1637191;85;21018;-62
2022/08/02 11:06:26;;;;;;;9.23;1.30;;;;;;;24.27;40.66;99859.73;1645886;85;21032;-60
2022/08/02 11:09:27;;;;;;;;;;;;;;;23.74;38.59;99864.69;1644904;85;20995;-61
2022/08/02 11:12:09;;;;;;;8.10;2.08;;;;;;;23.29;40.70;99856.24;1647717;85;20090;-61
2022/08/02 11:14:40;;;;;;;5.17;1.55;;;;;;;23.36;40.65;99846.67;1645779;86;21004;-60
2022/08/02 11:17:11;;;;;;;17.55;2.42;;;;;;;23.69;41.30;99849.61;1640562;85;20991;-60
2022/08/02 11:20:12;;;;;;;7.22;1.75;;;;;;;23.89;40.72;99847.16;1646252;85;21014;-61
2022/08/02 11:22:43;;;;;;;7.60;1.90;;;;;;;23.99;40.96;99850.22;1635556;85;21042;-60
2022/08/02 11:25:24;;;;;;;8.05;1.62;;;;;;;24.05;41.00;99856.25;1648177;86;20981;-60
2022/08/02 11:27:58;;;;;;;6.95;1.40;;;;;;;23.93;40.54;99851.67;1641825;85;21128;-60
2022/08/02 11:30:26;;;;;;;8.03;1.70;;;;;;;24.05;40.69;99850.92;1644514;85;21044;-60
2022/08/02 11:32:57;;;;;;;7.08;1.25;;;;;;;23.94;39.90;99847.17;1636358;85;20922;-60
2022/08/02 11:35:38;;;;;;;6.10;1.25;;;;;;;23.66;40.06;99847.25;1648094;85;21034;-60
2022/08/02 11:38:19;;;;;;;7.58;1.25;;;;;;;23.22;39.36;99845.36;1640881;85;21020;-60
2022/08/02 11:40:47;;;;;;;8.23;1.87;;;;;;;23.05;39.89;99855.97;1709167;82;21070;-61
2022/08/02 11:43:20;;;;;;;4.60;1.20;;;;;;;23.23;40.64;99854.19;1717399;82;20859;-61
2022/08/02 11:45:49;;;;;;;4.30;1.17;;;;;;;23.48;40.56;99859.77;1717273;82;20938;-61
2022/08/02 11:48:39;;;;;;;8.78;1.25;;;;;;;23.28;39.65;99861.73;1713208;82;20947;-61
2022/08/02 11:51:17;;;;;;;4.90;1.32;;;;;;;23.08;39.89;99861.86;1717492;82;20894;-62
2022/08/02 11:53:49;;;;;;;4.12;1.40;;;;;;;22.94;40.09;99871.16;1716674;82;21879;-61